Time;durP1;ratioP1;P1;durP2;ratioP2;P2;SDS_P1;SDS_P2;PMS_P1;PMS_P2;Temp;Humidity;BMP_temperature;BMP_pressure;BME280_temperature;BME280_humidity;BME280_pressure;Samples;Min_cycle;Max_cycle;Signal;HPM_P1;HPM_P2
2024/02/17 00:01:31;;;;;;;17.38;10.20;;;11.10;99.90;;;15.33;100.00;101280.91;5031455;28;20180;-78
2024/02/17 00:03:58;;;;;;;17.77;10.43;;;11.10;99.90;;;14.98;100.00;101284.34;5010560;28;20453;-79
2024/02/17 00:06:24;;;;;;;17.90;10.18;;;11.10;99.90;;;15.30;100.00;101291.53;5011479;28;20033;-79
2024/02/17 00:08:50;;;;;;;18.42;10.05;;;11.10;99.90;;;15.48;100.00;101285.97;5030895;28;20034;-79
2024/02/17 00:11:15;;;;;;;18.67;10.40;;;11.10;99.90;;;15.13;100.00;101285.84;5031201;28;20044;-79
2024/02/17 00:13:43;;;;;;;18.25;10.65;;;11.10;99.90;;;15.51;100.00;101284.69;5031061;28;20481;-80
2024/02/17 00:16:08;;;;;;;18.35;11.30;;;11.10;99.90;;;15.45;100.00;101277.38;5031420;28;20378;-79
2024/02/17 00:18:34;;;;;;;19.10;11.38;;;11.00;99.90;;;15.31;100.00;101277.53;5031062;28;20037;-78
2024/02/17 00:21:03;;;;;;;18.92;11.13;;;10.90;99.90;;;15.07;100.00;101282.13;5030788;28;20044;-79
2024/02/17 00:23:29;;;;;;;17.92;11.15;;;10.80;99.90;;;14.94;100.00;101288.63;5030961;28;20366;-79
2024/02/17 00:25:55;;;;;;;21.80;11.80;;;10.80;99.90;;;15.30;100.00;101280.53;5027383;28;20047;-80
2024/02/17 00:28:26;;;;;;;23.20;12.40;;;10.70;99.90;;;14.97;100.00;101288.16;5029445;28;20041;-78
2024/02/17 00:30:53;;;;;;;19.88;11.52;;;10.60;99.90;;;15.07;100.00;101282.94;5008321;28;20669;-79
2024/02/17 00:33:19;;;;;;;21.10;12.07;;;10.50;99.90;;;14.89;100.00;101285.72;5030052;28;20109;-78
2024/02/17 00:35:45;;;;;;;22.60;11.98;;;;;;;14.93;100.00;101284.19;5027416;28;20045;-79
2024/02/17 00:38:11;;;;;;;20.30;12.52;;;;;;;14.92;100.00;101301.75;5030425;28;20040;-79
2024/02/17 00:40:37;;;;;;;24.30;12.93;;;;;;;14.75;100.00;101302.34;5012862;28;20044;-78
2024/02/17 00:43:03;;;;;;;21.77;13.30;;;;;;;14.64;100.00;101305.84;5029759;28;20039;-79
2024/02/17 00:45:30;;;;;;;22.63;13.88;;;;;;;14.89;100.00;101297.53;5029941;28;20400;-79
2024/02/17 00:47:56;;;;;;;23.42;13.40;;;;;;;15.08;100.00;101306.59;5030390;28;20045;-79
2024/02/17 00:50:23;;;;;;;22.33;13.38;;;;;;;14.52;100.00;101306.56;5030021;28;20428;-79
2024/02/17 00:52:52;;;;;;;23.83;12.80;;;;;;;15.10;100.00;101304.47;5028985;28;20489;-79
2024/02/17 00:55:18;;;;;;;21.48;13.13;;;10.50;99.90;;;15.16;100.00;101308.19;5030231;28;20045;-79
2024/02/17 00:57:44;;;;;;;21.52;13.82;;;10.70;99.90;;;15.47;100.00;101308.22;5029746;28;20041;-79
2024/02/17 01:00:11;;;;;;;22.77;12.43;;;10.80;99.90;;;14.79;100.00;101314.56;5010326;28;20032;-78
2024/02/17 01:02:36;;;;;;;22.25;14.30;;;10.80;99.90;;;14.88;100.00;101328.00;5030401;28;20044;-79
2024/02/17 01:05:03;;;;;;;21.08;13.48;;;10.80;99.90;;;14.63;100.00;101329.69;5030259;28;20496;-78
2024/02/17 01:07:29;;;;;;;24.10;13.65;;;10.90;99.90;;;14.53;100.00;101319.25;5029661;28;20049;-79
2024/02/17 01:09:55;;;;;;;21.42;13.73;;;10.90;99.90;;;14.37;100.00;101328.06;5029682;28;20037;-78
2024/02/17 01:12:21;;;;;;;25.98;14.52;;;10.90;99.90;;;14.23;100.00;101325.44;5028835;28;20112;-78
2024/02/17 01:14:46;;;;;;;22.40;13.95;;;10.80;99.90;;;14.70;100.00;101337.03;5028380;28;20117;-78
2024/02/17 01:17:12;;;;;;;21.55;13.32;;;10.80;99.90;;;14.17;100.00;101339.22;5028352;28;20040;-79
2024/02/17 01:19:38;;;;;;;25.17;13.75;;;10.70;99.90;;;15.02;100.00;101347.91;5029955;28;20030;-79
2024/02/17 01:22:04;;;;;;;24.42;14.57;;;10.70;99.90;;;14.29;100.00;101348.41;5028747;28;20377;-78
2024/02/17 01:24:29;;;;;;;21.88;14.40;;;10.70;99.90;;;14.71;100.00;101355.22;5028528;28;20069;-79
2024/02/17 01:26:55;;;;;;;26.08;14.93;;;10.60;99.90;;;14.55;100.00;101356.59;5029835;28;20087;-79
2024/02/17 01:29:21;;;;;;;27.00;15.05;;;10.60;99.90;;;14.63;100.00;101365.41;5029002;28;20037;-79
2024/02/17 01:31:46;;;;;;;23.17;13.82;;;10.60;99.90;;;14.48;100.00;101368.50;5009437;28;20522;-79
2024/02/17 01:34:12;;;;;;;23.30;14.45;;;10.50;99.90;;;14.32;100.00;101374.53;5011355;28;20533;-79
2024/02/17 01:36:39;;;;;;;24.08;14.88;;;10.50;99.90;;;14.74;100.00;101374.84;5029432;28;20033;-79
2024/02/17 01:39:05;;;;;;;27.33;15.65;;;10.40;99.90;;;13.59;100.00;101382.22;5029733;28;20061;-78
2024/02/17 01:41:31;;;;;;;23.90;14.60;;;10.40;99.90;;;14.27;100.00;101375.25;5027094;28;20172;-78
2024/02/17 01:43:56;;;;;;;25.33;14.95;;;10.40;99.90;;;14.29;100.00;101388.72;5029925;28;20037;-78
2024/02/17 01:46:23;;;;;;;25.75;15.57;;;10.30;99.90;;;13.61;100.00;101385.59;5028825;28;20382;-79
2024/02/17 01:48:49;;;;;;;28.27;15.18;;;10.30;99.90;;;14.06;100.00;101387.44;5011849;28;20091;-79
2024/02/17 01:51:15;;;;;;;24.90;14.27;;;10.40;99.90;;;14.60;100.00;101385.06;5018496;28;20494;-78
2024/02/17 01:53:42;;;;;;;23.65;14.45;;;10.40;99.90;;;14.97;100.00;101381.56;5029740;28;20493;-78
2024/02/17 01:56:10;;;;;;;26.45;14.00;;;10.40;99.90;;;14.57;100.00;101381.94;4986372;28;20045;-79
2024/02/17 01:58:36;;;;;;;25.65;14.48;;;10.40;99.90;;;14.79;100.00;101391.47;5025724;28;20044;-79
2024/02/17 02:01:02;;;;;;;23.90;13.88;;;10.40;99.90;;;14.94;100.00;101379.28;5028488;28;20382;-79
2024/02/17 02:03:29;;;;;;;25.73;14.88;;;10.40;99.90;;;14.76;100.00;101382.84;5029300;28;20042;-78
2024/02/17 02:05:56;;;;;;;23.08;14.02;;;10.40;99.90;;;13.95;100.00;101389.00;5029296;28;20137;-79
2024/02/17 02:08:22;;;;;;;25.67;15.05;;;10.40;99.90;;;14.41;100.00;101395.19;5029486;28;20159;-79
2024/02/17 02:10:48;;;;;;;26.75;14.00;;;10.30;99.90;;;14.36;100.00;101389.53;5008283;28;20044;-79
2024/02/17 02:13:14;;;;;;;27.48;14.52;;;10.30;99.90;;;14.53;100.00;101387.06;5027714;28;20033;-79
2024/02/17 02:15:44;;;;;;;22.13;14.07;;;10.20;99.90;;;14.54;100.00;101394.22;5028908;28;20065;-79
2024/02/17 02:18:10;;;;;;;21.85;13.10;;;10.20;99.90;;;14.32;100.00;101400.09;5028292;28;20040;-78
2024/02/17 02:20:37;;;;;;;22.23;13.70;;;10.30;99.90;;;14.74;100.00;101394.06;5012934;28;20094;-78
2024/02/17 02:23:04;;;;;;;19.65;11.77;;;10.30;99.90;;;14.35;100.00;101399.66;5029065;28;20037;-78
2024/02/17 02:25:31;;;;;;;24.25;13.52;;;10.30;99.90;;;14.56;100.00;101414.06;5029454;28;20529;-79
2024/02/17 02:27:57;;;;;;;20.38;12.38;;;10.30;99.90;;;14.46;100.00;101411.00;5026579;28;20131;-79
2024/02/17 02:30:23;;;;;;;21.25;12.00;;;10.40;99.90;;;14.46;100.00;101427.47;5032709;28;20044;-79
2024/02/17 02:32:55;;;;;;;23.23;13.63;;;10.40;99.90;;;14.21;100.00;101418.13;5032849;28;20047;-79
2024/02/17 02:35:21;;;;;;;19.95;12.80;;;10.40;99.90;;;14.10;100.00;101425.16;5032610;28;20045;-78
2024/02/17 02:37:46;;;;;;;21.50;12.10;;;10.40;99.90;;;14.38;100.00;101426.66;5032173;28;20088;-77
2024/02/17 02:40:12;;;;;;;20.00;11.98;;;10.40;99.90;;;14.20;100.00;101427.44;5032266;28;20131;-78
2024/02/17 02:42:38;;;;;;;20.33;12.15;;;10.40;99.90;;;14.32;100.00;101433.03;5032078;28;20493;-79
2024/02/17 02:45:05;;;;;;;19.60;11.75;;;10.40;99.90;;;14.32;100.00;101430.28;5033068;28;20029;-78
2024/02/17 02:47:31;;;;;;;21.95;12.45;;;10.40;99.90;;;13.93;100.00;101426.78;5003301;28;20060;-79
2024/02/17 02:49:59;;;;;;;18.98;12.75;;;10.40;99.90;;;14.31;100.00;101428.63;5033350;28;20461;-79
2024/02/17 02:52:25;;;;;;;20.48;12.70;;;10.40;99.90;;;14.28;100.00;101436.44;5032615;28;20041;-79
2024/02/17 02:54:51;;;;;;;20.33;11.93;;;10.30;99.90;;;13.97;100.00;101443.63;5027070;28;20068;-79
2024/02/17 02:57:16;;;;;;;20.73;12.85;;;10.30;99.90;;;14.33;100.00;101444.88;5032323;28;20393;-79
2024/02/17 02:59:42;;;;;;;19.08;11.80;;;10.20;99.90;;;13.83;100.00;101453.81;5032435;28;20424;-78
2024/02/17 03:02:08;;;;;;;20.38;12.18;;;10.20;99.90;;;13.92;100.00;101450.59;5017239;28;20036;-79
2024/02/17 03:04:33;;;;;;;20.35;12.38;;;10.20;99.90;;;13.94;100.00;101451.22;5031709;28;20044;-78
2024/02/17 03:06:59;;;;;;;21.80;12.65;;;10.20;99.90;;;13.99;100.00;101453.31;5032059;28;20397;-78
2024/02/17 03:09:25;;;;;;;24.00;12.77;;;10.10;99.90;;;13.64;100.00;101454.53;5031818;28;20033;-79
2024/02/17 03:11:51;;;;;;;19.05;11.27;;;10.00;99.90;;;13.32;100.00;101448.94;5031260;28;20053;-79
2024/02/17 03:14:17;;;;;;;19.38;11.05;;;9.90;99.90;;;13.20;100.00;101450.66;5032026;28;20044;-78
2024/02/17 03:16:42;;;;;;;18.88;10.65;;;10.00;99.90;;;13.39;100.00;101468.09;5031519;28;20033;-79
2024/02/17 03:19:08;;;;;;;17.80;11.05;;;9.90;99.90;;;13.42;100.00;101458.59;5032397;28;20038;-80
2024/02/17 03:21:34;;;;;;;16.92;10.05;;;9.90;99.90;;;14.04;100.00;101455.38;5031240;28;20095;-79
2024/02/17 03:24:00;;;;;;;19.52;10.00;;;9.90;99.90;;;13.29;100.00;101465.81;5031866;28;20040;-79
2024/02/17 03:26:25;;;;;;;16.45;10.30;;;9.90;99.90;;;13.27;100.00;101464.34;5032067;28;20551;-79
2024/02/17 03:28:51;;;;;;;17.23;9.18;;;9.90;99.90;;;13.25;100.00;101467.28;5032173;28;20042;-79
2024/02/17 03:31:18;;;;;;;16.98;9.18;;;9.90;99.90;;;13.42;100.00;101470.44;5032067;28;20060;-79
2024/02/17 03:33:43;;;;;;;17.42;9.98;;;9.90;99.90;;;13.38;100.00;101469.16;5032018;28;20495;-79
2024/02/17 03:36:09;;;;;;;19.10;9.70;;;9.90;99.90;;;13.19;100.00;101487.31;5031555;28;20033;-78
2024/02/17 03:38:35;;;;;;;17.65;10.45;;;10.00;99.90;;;13.57;100.00;101483.91;5031408;28;20041;-78
2024/02/17 03:41:01;;;;;;;18.70;10.63;;;9.90;99.90;;;13.62;100.00;101478.59;5030841;28;20045;-79
2024/02/17 03:43:26;;;;;;;15.70;10.05;;;9.90;99.90;;;13.84;100.00;101491.16;5032130;28;20075;-80
2024/02/17 03:45:52;;;;;;;17.52;10.05;;;9.90;99.90;;;13.56;100.00;101495.91;5030908;28;20043;-79
2024/02/17 03:48:18;;;;;;;15.25;9.65;;;9.90;99.90;;;13.23;100.00;101494.06;5046809;28;20096;-79
2024/02/17 03:50:44;;;;;;;17.58;9.23;;;;;;;13.75;100.00;101515.25;5031519;28;20041;-79
2024/02/17 03:53:10;;;;;;;17.80;9.95;;;9.90;99.90;;;12.80;100.00;101514.53;5031780;28;20041;-79
2024/02/17 03:55:35;;;;;;;16.42;9.18;;;9.90;99.90;;;13.41;100.00;101506.25;5030036;28;20041;-79
2024/02/17 03:58:01;;;;;;;18.45;9.80;;;9.90;99.90;;;13.11;100.00;101513.03;5030829;28;20481;-79
2024/02/17 04:00:27;;;;;;;15.35;8.52;;;9.90;99.90;;;13.13;100.00;101513.72;5031354;28;20036;-79
2024/02/17 04:02:52;;;;;;;15.55;8.38;;;9.90;99.90;;;13.71;100.00;101517.59;5030266;28;20061;-79
2024/02/17 04:05:18;;;;;;;16.05;8.35;;;9.90;99.90;;;14.12;100.00;101512.75;5030804;28;20041;-78
2024/02/17 04:07:44;;;;;;;17.05;8.50;;;9.90;99.90;;;13.85;100.00;101515.63;5031369;28;20037;-78
2024/02/17 04:10:09;;;;;;;18.25;8.93;;;9.90;99.90;;;13.50;100.00;101526.91;5030193;28;20037;-79
2024/02/17 04:12:37;;;;;;;13.82;8.38;;;9.90;99.90;;;13.68;100.00;101522.66;5013189;28;20124;-78
2024/02/17 04:15:05;;;;;;;15.35;8.55;;;9.80;99.90;;;13.58;100.00;101529.44;5031614;28;20473;-78
2024/02/17 04:17:31;;;;;;;15.65;8.70;;;9.80;99.90;;;13.26;100.00;101529.28;5036342;28;20136;-79
2024/02/17 04:19:56;;;;;;;15.93;7.95;;;9.80;99.90;;;13.38;100.00;101538.53;5031093;28;20572;-79
2024/02/17 04:22:24;;;;;;;13.77;8.77;;;9.80;99.90;;;13.56;100.00;101541.66;5030589;28;20044;-79
2024/02/17 04:24:50;;;;;;;17.80;9.45;;;9.80;99.90;;;13.49;100.00;101538.94;5030830;28;20180;-79
2024/02/17 04:27:15;;;;;;;20.20;9.32;;;9.80;99.90;;;13.17;100.00;101534.13;5030872;28;20117;-79
2024/02/17 04:29:41;;;;;;;16.83;9.38;;;9.70;99.90;;;12.49;100.00;101544.22;5028824;28;20496;-79
2024/02/17 04:32:08;;;;;;;15.80;9.45;;;9.70;99.90;;;13.04;100.00;101551.44;5030824;28;20084;-79
2024/02/17 04:34:35;;;;;;;16.70;9.32;;;9.60;99.90;;;12.71;100.00;101552.22;5030762;28;20029;-80
2024/02/17 04:37:03;;;;;;;20.67;9.80;;;9.60;99.90;;;13.48;100.00;101572.88;5028561;28;20124;-79
2024/02/17 04:39:28;;;;;;;20.58;10.10;;;9.70;99.90;;;13.45;100.00;101562.34;5030489;28;20561;-79
2024/02/17 04:41:54;;;;;;;18.65;10.13;;;9.70;99.90;;;14.01;100.00;101576.53;5029593;28;20112;-78
2024/02/17 04:44:20;;;;;;;17.27;9.80;;;9.70;99.90;;;13.76;100.00;101566.28;5030622;28;20098;-79
2024/02/17 04:46:47;;;;;;;18.23;10.23;;;9.70;99.90;;;13.90;100.00;101584.38;5030290;28;20041;-79
2024/02/17 04:49:12;;;;;;;18.33;10.15;;;9.70;99.90;;;13.84;100.00;101581.66;5026052;28;20048;-79
2024/02/17 04:51:38;;;;;;;20.00;9.95;;;9.70;99.90;;;13.75;100.00;101589.28;5028144;28;20041;-79
2024/02/17 04:54:04;;;;;;;15.45;9.43;;;9.70;99.90;;;13.59;100.00;101580.47;5013069;28;20041;-79
2024/02/17 04:56:30;;;;;;;21.23;11.43;;;9.70;99.90;;;13.26;100.00;101588.72;5030202;28;20048;-79
2024/02/17 04:58:55;;;;;;;18.30;10.52;;;9.70;99.90;;;13.47;100.00;101591.25;5029895;28;20052;-79
2024/02/17 05:01:23;;;;;;;21.00;10.07;;;9.70;99.90;;;13.00;100.00;101598.63;5029512;28;20499;-79
2024/02/17 05:03:49;;;;;;;19.47;10.43;;;9.80;99.90;;;13.80;100.00;101601.28;5026431;28;20509;-79
2024/02/17 05:06:17;;;;;;;17.63;10.32;;;9.80;99.90;;;14.08;100.00;101607.56;5030339;28;20041;-79
2024/02/17 05:08:45;;;;;;;18.15;10.45;;;9.80;99.90;;;13.63;100.00;101608.28;5022827;28;20041;-79
2024/02/17 05:11:15;;;;;;;18.88;10.02;;;9.80;99.90;;;13.22;100.00;101615.69;5045147;28;20471;-79
2024/02/17 05:13:41;;;;;;;17.48;9.25;;;9.80;99.90;;;13.33;100.00;101612.31;5029775;28;20037;-79
2024/02/17 05:16:07;;;;;;;18.08;8.95;;;9.80;99.90;;;13.22;100.00;101612.94;5029462;28;20423;-79
2024/02/17 05:18:33;;;;;;;19.13;10.20;;;9.80;99.90;;;13.83;100.00;101610.16;5011690;28;20093;-79
2024/02/17 05:20:59;;;;;;;16.95;7.80;;;9.80;99.90;;;12.63;100.00;101604.44;5029494;28;20034;-79
2024/02/17 05:23:26;;;;;;;17.15;9.13;;;9.80;99.90;;;12.86;100.00;101617.75;5038875;28;20038;-79
2024/02/17 05:25:54;;;;;;;15.90;8.43;;;9.80;99.90;;;13.69;100.00;101620.31;5024898;28;20034;-79
2024/02/17 05:28:20;;;;;;;;;;;9.80;99.90;;;13.65;100.00;101634.44;5029366;28;20041;-78
2024/02/17 05:30:47;;;;;;;16.88;7.68;;;9.80;99.90;;;13.12;100.00;101631.69;5029700;28;19928;-79
2024/02/17 05:33:12;;;;;;;15.77;8.70;;;9.80;99.90;;;13.16;100.00;101635.69;5029678;28;20125;-80
2024/02/17 05:35:38;;;;;;;18.70;9.40;;;9.80;99.90;;;13.05;100.00;101632.56;5028844;28;20041;-78
2024/02/17 05:38:04;;;;;;;17.15;9.48;;;9.80;99.90;;;13.86;100.00;101638.00;5011497;28;20512;-78
2024/02/17 05:40:30;;;;;;;15.18;8.80;;;9.70;99.90;;;13.76;100.00;101643.06;5029580;28;20029;-79
2024/02/17 05:42:55;;;;;;;15.57;8.60;;;9.70;99.90;;;12.90;100.00;101642.84;5029746;28;20044;-79
2024/02/17 05:45:21;;;;;;;18.73;9.63;;;9.70;99.90;;;12.93;100.00;101658.84;5029724;28;20037;-79
2024/02/17 05:47:47;;;;;;;17.63;9.65;;;9.70;99.90;;;13.37;100.00;101654.69;5028756;28;20394;-79
2024/02/17 05:50:13;;;;;;;16.75;9.88;;;9.70;99.90;;;12.62;100.00;101657.50;5039506;28;20401;-79
2024/02/17 05:52:40;;;;;;;15.55;8.77;;;9.70;99.90;;;13.30;100.00;101669.44;5025850;28;20041;-79
2024/02/17 05:55:06;;;;;;;14.98;7.03;;;9.70;99.90;;;12.66;100.00;101669.75;5027942;28;20049;-79
2024/02/17 05:57:31;;;;;;;15.57;8.07;;;9.70;99.90;;;12.97;100.00;101673.81;5027734;28;20025;-79
2024/02/17 05:59:58;;;;;;;14.38;7.70;;;;;;;13.18;100.00;101678.28;5028636;28;20038;-79
2024/02/17 06:02:24;;;;;;;16.52;8.80;;;9.70;99.90;;;13.11;100.00;101680.16;5029857;28;20087;-79
2024/02/17 06:04:50;;;;;;;15.00;8.15;;;9.70;99.90;;;12.46;100.00;101683.38;5031967;28;20049;-78
2024/02/17 06:07:16;;;;;;;13.68;7.70;;;9.70;99.90;;;12.50;100.00;101688.22;5033498;28;20362;-79
2024/02/17 06:09:42;;;;;;;15.75;8.48;;;9.70;99.90;;;12.17;100.00;101688.06;5030878;28;20029;-79
2024/02/17 06:12:08;;;;;;;13.38;6.95;;;9.70;99.90;;;12.52;100.00;101668.84;5045451;28;20037;-80
2024/02/17 06:14:33;;;;;;;13.98;7.72;;;9.70;99.90;;;12.75;100.00;101679.47;5043371;28;20029;-79
2024/02/17 06:17:06;;;;;;;13.45;6.43;;;9.60;99.90;;;12.39;100.00;101680.59;5041659;28;20427;-79
2024/02/17 06:22:17;;;;;;;13.90;6.13;;;9.60;99.90;;;12.65;100.00;101698.16;5042185;28;20129;-78
2024/02/17 06:24:42;;;;;;;11.65;5.93;;;9.60;99.90;;;12.94;100.00;101707.97;5043410;28;20046;-78
2024/02/17 06:27:08;;;;;;;11.23;6.25;;;9.60;99.90;;;12.93;100.00;101699.94;5023058;28;20037;-78
2024/02/17 06:29:34;;;;;;;11.57;5.85;;;9.60;99.90;;;12.41;100.00;101702.28;5044445;28;20476;-80
2024/02/17 06:31:59;;;;;;;12.77;6.18;;;9.60;99.90;;;12.56;100.00;101713.91;5041836;28;20051;-79
2024/02/17 06:34:25;;;;;;;12.75;5.90;;;9.60;99.90;;;12.85;100.00;101722.88;5024501;28;20098;-79
2024/02/17 06:36:51;;;;;;;12.50;5.45;;;9.60;99.90;;;12.45;100.00;101720.81;5058136;28;20042;-78
2024/02/17 06:39:16;;;;;;;8.68;4.60;;;9.60;99.90;;;12.79;100.00;101745.59;5037262;28;20037;-78
2024/02/17 06:41:42;;;;;;;10.52;5.53;;;9.60;99.90;;;13.02;100.00;101738.94;5030964;28;20045;-76
2024/02/17 06:44:08;;;;;;;11.25;5.60;;;9.60;99.90;;;12.68;100.00;101741.56;5028591;28;20044;-77
2024/02/17 06:46:34;;;;;;;9.35;4.72;;;9.60;99.90;;;12.02;100.00;101749.19;5034071;28;20037;-78
2024/02/17 06:48:59;;;;;;;10.68;5.38;;;9.70;99.90;;;12.37;100.00;101753.84;5037954;28;20033;-76
2024/02/17 06:51:26;;;;;;;9.93;5.22;;;9.60;99.90;;;12.85;100.00;101752.16;5018849;28;20042;-81
2024/02/17 06:53:52;;;;;;;9.55;4.97;;;9.60;99.90;;;12.83;100.00;101748.78;5018306;28;20087;-79
2024/02/17 06:56:17;;;;;;;11.00;5.43;;;9.60;99.90;;;12.58;100.00;101763.00;5028503;28;20045;-76
2024/02/17 06:58:43;;;;;;;8.88;4.25;;;9.60;99.90;;;12.15;100.00;101761.28;5014356;28;20033;-77
2024/02/17 07:01:09;;;;;;;10.23;4.88;;;9.60;99.90;;;12.05;100.00;101767.94;5032189;28;20103;-77
2024/02/17 07:03:35;;;;;;;10.73;4.60;;;9.70;99.90;;;12.83;100.00;101774.25;5031604;28;20397;-76
2024/02/17 07:06:00;;;;;;;7.88;4.40;;;9.70;99.90;;;12.34;100.00;101774.25;5011047;28;20121;-81
2024/02/17 07:08:27;;;;;;;8.75;4.50;;;9.70;99.90;;;12.10;100.00;101794.69;5031095;28;20033;-79
2024/02/17 07:10:53;;;;;;;6.60;3.67;;;9.70;99.90;;;12.31;100.00;101792.97;5031733;28;20040;-77
2024/02/17 07:13:18;;;;;;;13.32;3.85;;;9.70;99.90;;;12.39;100.00;101789.22;5033188;28;20038;-76
2024/02/17 07:15:45;;;;;;;10.23;4.95;;;9.70;99.90;;;12.46;100.00;101790.94;5034287;28;20037;-76
2024/02/17 07:18:14;;;;;;;8.05;4.03;;;9.70;99.90;;;12.74;100.00;101790.03;5034467;28;20040;-75
2024/02/17 07:20:41;;;;;;;7.10;3.10;;;9.70;99.90;;;13.08;100.00;101801.97;5034719;28;20424;-77
2024/02/17 07:23:06;;;;;;;7.25;3.38;;;9.70;99.90;;;13.20;100.00;101802.22;5014553;28;20087;-76
2024/02/17 07:25:34;;;;;;;7.82;3.20;;;9.70;99.90;;;13.26;100.00;101795.09;5031966;28;20041;-76
2024/02/17 07:28:01;;;;;;;6.03;3.20;;;9.70;99.90;;;12.40;100.00;101812.81;5031619;28;20034;-77
2024/02/17 07:30:28;;;;;;;5.25;2.80;;;9.80;99.90;;;12.52;100.00;101822.13;5046728;28;20037;-77
2024/02/17 07:32:54;;;;;;;6.03;3.03;;;9.80;99.90;;;13.40;100.00;101819.75;5032790;28;20576;-77
2024/02/17 07:35:23;;;;;;;7.03;3.17;;;9.70;99.90;;;13.30;100.00;101839.34;5032452;28;20038;-77
2024/02/17 07:37:49;;;;;;;6.45;3.28;;;9.80;99.90;;;12.74;100.00;101827.53;5032670;28;20063;-77
2024/02/17 07:40:15;;;;;;;7.90;3.30;;;9.70;99.90;;;12.40;100.00;101840.16;5029916;28;20045;-77
2024/02/17 07:42:41;;;;;;;7.72;2.70;;;9.80;99.90;;;13.01;100.00;101836.72;5031475;28;20447;-77
2024/02/17 07:45:07;;;;;;;6.40;3.00;;;9.80;99.90;;;12.51;100.00;101831.38;5045792;28;20037;-80
2024/02/17 07:47:33;;;;;;;9.82;2.92;;;9.80;99.90;;;12.81;100.00;101820.19;5027867;28;20041;-80
2024/02/17 07:50:02;;;;;;;6.47;3.17;;;9.80;99.90;;;12.38;100.00;101848.56;5010836;28;20042;-80
2024/02/17 07:52:28;;;;;;;6.15;2.53;;;9.90;99.90;;;12.51;100.00;101837.72;5032666;28;20087;-79
2024/02/17 07:54:54;;;;;;;5.30;2.55;;;9.80;99.90;;;12.89;100.00;101843.81;5014051;28;20037;-79
2024/02/17 07:57:19;;;;;;;7.30;2.47;;;9.90;99.90;;;12.71;100.00;101852.56;5028083;28;20040;-78
2024/02/17 07:59:45;;;;;;;8.05;3.35;;;10.00;99.90;;;12.63;100.00;101856.31;5031595;28;20037;-80
2024/02/17 08:02:11;;;;;;;7.13;3.17;;;10.00;99.90;;;12.86;100.00;101860.66;5031918;28;20382;-80
2024/02/17 08:04:37;;;;;;;7.63;2.90;;;10.00;99.90;;;12.75;100.00;101870.28;5031019;28;20042;-82
2024/02/17 08:07:02;;;;;;;7.72;3.10;;;10.00;99.90;;;12.33;100.00;101886.63;5027559;28;20041;-79
2024/02/17 08:09:28;;;;;;;5.50;2.63;;;10.00;99.90;;;12.58;100.00;101869.75;5032037;28;20049;-79
2024/02/17 08:11:56;;;;;;;5.53;2.58;;;10.10;99.90;;;13.31;100.00;101879.41;5031144;28;20179;-83
2024/02/17 08:14:22;;;;;;;9.80;2.80;;;10.10;99.90;;;13.71;98.98;101874.06;5031672;28;20041;-82
2024/02/17 08:16:48;;;;;;;7.60;2.75;;;10.20;99.90;;;13.06;100.00;101888.13;5032203;28;20034;-81
2024/02/17 08:19:14;;;;;;;7.18;3.00;;;10.20;99.90;;;12.58;100.00;101891.66;5031973;28;20048;-82
2024/02/17 08:21:39;;;;;;;7.88;2.88;;;10.20;99.90;;;13.12;99.93;101892.81;5047586;28;20030;-80
2024/02/17 08:24:05;;;;;;;6.15;2.78;;;10.20;99.90;;;13.64;99.03;101892.38;5031807;28;20385;-79
2024/02/17 08:26:32;;;;;;;7.28;2.78;;;10.20;99.90;;;12.77;100.00;101906.53;5022506;28;20090;-79
2024/02/17 08:28:58;;;;;;;6.53;2.72;;;10.20;99.90;;;13.11;99.68;101917.69;5023519;28;20080;-78
2024/02/17 08:31:24;;;;;;;5.13;2.70;;;10.30;99.90;;;12.99;100.00;101909.19;5008104;28;20056;-79
2024/02/17 08:33:50;;;;;;;6.50;2.30;;;10.20;99.90;;;13.59;97.53;101909.47;5031298;28;20041;-79
2024/02/17 08:36:16;;;;;;;4.68;2.28;;;10.30;99.90;;;12.93;99.80;101913.56;5032009;28;20029;-79
2024/02/17 08:38:42;;;;;;;6.88;3.38;;;10.40;99.90;;;13.33;99.00;101912.91;5032367;28;20040;-79
2024/02/17 08:41:08;;;;;;;4.78;2.40;;;10.40;99.90;;;13.70;97.07;101918.16;5029277;28;20025;-78
2024/02/17 08:43:33;;;;;;;6.55;2.83;;;10.40;99.90;;;13.93;96.80;101921.38;5024077;28;20398;-78
2024/02/17 08:45:59;;;;;;;9.35;3.08;;;10.60;99.90;;;12.96;100.00;101937.81;5010942;28;20041;-78
2024/02/17 08:48:25;;;;;;;7.35;3.03;;;10.50;99.90;;;12.96;100.00;101924.13;5037985;28;20033;-78
2024/02/17 08:50:51;;;;;;;6.07;3.33;;;10.40;99.90;;;13.09;100.00;101946.13;5033705;28;20131;-80
2024/02/17 08:53:20;;;;;;;6.95;3.40;;;10.40;99.90;;;13.49;100.00;101948.25;5032678;28;20045;-79
2024/02/17 08:55:45;;;;;;;6.57;3.40;;;10.30;99.90;;;12.69;100.00;101959.53;5029464;28;20030;-79
2024/02/17 08:58:11;;;;;;;7.57;3.72;;;10.30;99.90;;;12.41;100.00;101965.00;5014902;28;20072;-79
2024/02/17 09:00:38;;;;;;;8.75;3.83;;;10.10;99.90;;;12.51;100.00;101971.84;5028476;28;20049;-80
2024/02/17 09:03:04;;;;;;;6.83;3.73;;;10.10;99.90;;;12.81;100.00;101959.84;5031171;28;20474;-79
2024/02/17 09:05:30;;;;;;;10.73;4.07;;;10.20;99.90;;;13.31;100.00;101961.63;5013848;28;20038;-77
2024/02/17 09:07:55;;;;;;;9.23;4.13;;;10.20;99.90;;;13.35;100.00;101963.75;5030959;28;20064;-79
2024/02/17 09:10:21;;;;;;;10.73;4.40;;;10.20;99.90;;;13.35;100.00;101958.28;5031037;28;20042;-78
2024/02/17 09:12:48;;;;;;;7.65;3.90;;;10.20;99.90;;;13.13;100.00;101970.38;5030017;28;20038;-79
2024/02/17 09:15:14;;;;;;;7.40;4.23;;;10.20;99.90;;;13.06;100.00;101978.53;5030136;28;20060;-82
2024/02/17 09:17:40;;;;;;;11.93;4.25;;;10.20;99.90;;;13.70;100.00;101976.59;5014744;28;20286;-82
2024/02/17 09:20:06;;;;;;;10.10;4.85;;;10.20;99.90;;;12.67;100.00;101980.78;5030773;28;20489;-84
2024/02/17 09:22:32;;;;;;;9.90;4.30;;;10.20;99.90;;;12.86;100.00;101992.09;5029867;28;20467;-86
2024/02/17 09:24:58;;;;;;;9.25;5.28;;;10.10;99.90;;;13.19;100.00;102002.44;5028501;28;20057;-82
2024/02/17 09:27:24;;;;;;;15.48;4.97;;;10.00;99.90;;;12.27;100.00;102007.81;5011148;28;20037;-83
2024/02/17 09:29:50;;;;;;;10.25;4.80;;;10.00;99.90;;;11.92;100.00;102009.28;5013214;28;20037;-83
2024/02/17 09:32:16;;;;;;;6.88;4.30;;;9.90;99.90;;;12.61;100.00;102018.03;5029321;28;20049;-84
2024/02/17 09:34:41;;;;;;;13.25;5.22;;;10.00;99.90;;;12.94;100.00;102022.06;5028292;28;20037;-81
2024/02/17 09:37:09;;;;;;;10.15;5.22;;;10.00;99.90;;;12.43;100.00;102012.19;4998108;28;20049;-82
2024/02/17 09:39:35;;;;;;;10.50;5.18;;;10.00;99.90;;;12.69;100.00;102028.00;5025531;28;20038;-82
2024/02/17 09:42:01;;;;;;;11.07;5.38;;;9.90;99.90;;;12.54;100.00;102038.19;5028249;28;20041;-81
2024/02/17 09:44:28;;;;;;;9.57;4.93;;;9.80;99.90;;;12.30;100.00;102034.78;5011459;28;20083;-81
2024/02/17 09:46:54;;;;;;;10.77;5.13;;;9.70;99.90;;;12.26;100.00;102049.91;5028763;28;20040;-80
2024/02/17 09:49:25;;;;;;;11.38;5.55;;;9.70;99.90;;;12.68;100.00;102039.97;5025835;28;20034;-78
2024/02/17 09:51:53;;;;;;;7.78;3.97;;;9.70;99.90;;;11.87;100.00;102047.31;5029960;28;20049;-78
2024/02/17 09:54:22;;;;;;;9.57;4.18;;;9.70;99.90;;;12.46;100.00;102039.16;5030352;28;20044;-79
2024/02/17 09:56:51;;;;;;;9.60;4.07;;;9.80;99.90;;;13.33;100.00;102042.59;5007673;28;20042;-78
2024/02/17 09:59:16;;;;;;;5.60;3.38;;;9.90;99.90;;;12.63;100.00;102047.94;5020229;28;20431;-77
2024/02/17 10:01:44;;;;;;;6.68;3.13;;;9.90;99.90;;;12.74;100.00;102041.97;5014902;28;20042;-78
2024/02/17 10:04:10;;;;;;;;;;;10.10;99.90;;;12.51;100.00;102039.41;5024771;28;20359;-77